createdAt,value
2018-04-22T00:01:36.938Z,52.40
2018-04-22T00:04:07.283Z,52.40
2018-04-22T00:06:39.669Z,53.30
2018-04-22T00:09:10.042Z,54.30
2018-04-22T00:11:41.144Z,54.50
2018-04-22T00:14:11.512Z,54.40
2018-04-22T00:16:42.650Z,54.20
2018-04-22T00:19:13.742Z,54.70
2018-04-22T00:22:05.481Z,54.60
2018-04-22T00:24:35.823Z,54.60
2018-04-22T00:27:06.132Z,53.90
2018-04-22T00:29:36.484Z,53.80
2018-04-22T00:32:07.587Z,53.90
2018-04-22T00:34:37.944Z,53.90
2018-04-22T00:37:08.322Z,54.00
2018-04-22T00:39:38.678Z,54.50
2018-04-22T00:42:29.439Z,54.50
2018-04-22T00:44:59.794Z,54.80
2018-04-22T00:47:52.356Z,54.40
2018-04-22T00:50:22.696Z,54.40
2018-04-22T00:52:53.066Z,54.60
2018-04-22T00:55:23.437Z,54.50
2018-04-22T00:57:53.787Z,55.00
2018-04-22T01:00:24.889Z,54.60
2018-04-22T01:03:14.638Z,54.60
2018-04-22T01:05:44.976Z,55.30
2018-04-22T01:08:15.317Z,55.70
2018-04-22T01:10:45.682Z,55.90
2018-04-22T01:13:16.015Z,55.90
2018-04-22T01:15:47.125Z,56.50
2018-04-22T01:18:17.480Z,56.00
2018-04-22T01:20:47.815Z,55.60
2018-04-22T01:23:18.941Z,56.20
2018-04-22T01:25:49.272Z,56.10
2018-04-22T01:28:19.609Z,56.60
2018-04-22T01:30:50.729Z,56.90
2018-04-22T01:33:21.114Z,56.80
2018-04-22T01:35:51.468Z,57.10
2018-04-22T01:38:43.265Z,57.70
2018-04-22T01:41:13.597Z,57.50
2018-04-22T01:43:43.933Z,58.70
2018-04-22T01:46:14.302Z,61.00
2018-04-22T01:48:44.603Z,61.20
2018-04-22T01:51:14.990Z,60.30
2018-04-22T01:53:46.320Z,60.10
2018-04-22T01:56:17.424Z,59.80
2018-04-22T01:58:47.764Z,59.80
2018-04-22T02:01:18.121Z,59.50
2018-04-22T02:03:48.430Z,59.50
2018-04-22T02:06:19.509Z,58.70
2018-04-22T02:08:49.891Z,58.70
2018-04-22T02:14:09.265Z,59.50
2018-04-22T02:16:39.680Z,59.60
2018-04-22T02:19:32.313Z,60.00
2018-04-22T02:22:07.857Z,59.40
2018-04-22T02:24:38.279Z,59.00
2018-04-22T02:27:08.685Z,59.30
2018-04-22T02:29:39.873Z,58.90
2018-04-22T02:32:13.373Z,58.90
2018-04-22T02:34:45.826Z,60.20
2018-04-22T02:37:16.253Z,60.50
2018-04-22T02:39:46.686Z,60.70
2018-04-22T02:42:17.035Z,61.70
2018-04-22T02:44:47.386Z,61.80
2018-04-22T02:47:17.827Z,62.20
2018-04-22T02:49:48.989Z,63.10
2018-04-22T02:52:19.388Z,63.10
2018-04-22T02:54:50.605Z,63.60
2018-04-22T02:57:21.042Z,63.70
2018-04-22T02:59:51.474Z,63.30
2018-04-22T03:02:21.904Z,63.70
2018-04-22T03:04:52.337Z,64.10
2018-04-22T03:07:22.742Z,65.30
2018-04-22T03:09:53.174Z,65.00
2018-04-22T03:12:23.570Z,65.60
2018-04-22T03:14:53.970Z,65.90
2018-04-22T03:17:25.157Z,65.10
2018-04-22T03:20:15.952Z,65.00
2018-04-22T03:22:51.517Z,66.00
2018-04-22T03:25:22.884Z,67.90
2018-04-22T03:27:53.284Z,67.70
2018-04-22T03:30:45.075Z,68.10
2018-04-22T03:33:19.504Z,68.20
2018-04-22T03:35:49.909Z,67.70
2018-04-22T03:38:21.129Z,68.30
2018-04-22T03:40:51.536Z,68.20
2018-04-22T03:43:43.410Z,68.20
2018-04-22T03:46:16.662Z,69.10
2018-04-22T03:48:47.282Z,69.40
2018-04-22T03:51:25.048Z,68.70
2018-04-22T03:53:55.452Z,68.60
2018-04-22T03:56:25.889Z,68.20
2018-04-22T03:58:57.085Z,69.80
2018-04-22T04:01:33.654Z,69.70
2018-04-22T04:04:06.158Z,69.60
2018-04-22T04:06:36.568Z,69.70
2018-04-22T04:09:13.128Z,69.30
2018-04-22T04:11:47.617Z,69.10
2018-04-22T04:14:18.767Z,70.10
2018-04-22T04:16:49.892Z,70.20
2018-04-22T04:20:15.972Z,70.50
2018-04-22T04:22:52.541Z,70.50
2018-04-22T04:25:53.956Z,70.20
2018-04-22T04:28:25.132Z,71.20
2018-04-22T04:30:55.567Z,71.20
2018-04-22T04:33:31.105Z,71.90
2018-04-22T04:36:01.544Z,70.30
2018-04-22T04:38:37.060Z,71.50
2018-04-22T04:41:07.505Z,71.90
2018-04-22T04:43:37.938Z,72.30
2018-04-22T04:46:10.420Z,71.80
2018-04-22T04:48:45.955Z,72.30
2018-04-22T04:51:16.362Z,73.00
2018-04-22T04:53:47.568Z,73.20
2018-04-22T04:56:17.996Z,73.20
2018-04-22T04:58:48.412Z,73.50
2018-04-22T05:01:39.252Z,73.70
2018-04-22T05:04:10.455Z,72.50
2018-04-22T05:07:03.090Z,72.90
2018-04-22T05:09:33.495Z,72.90
2018-04-22T05:12:03.909Z,73.30
2018-04-22T05:14:35.099Z,73.70
2018-04-22T05:17:12.849Z,73.70
2018-04-22T05:19:44.036Z,72.90
2018-04-22T05:22:18.537Z,72.90
2018-04-22T05:24:48.978Z,73.10
2018-04-22T05:27:19.720Z,74.10
2018-04-22T05:29:51.143Z,73.80
2018-04-22T05:32:22.318Z,74.10
2018-04-22T05:34:53.764Z,74.00
2018-04-22T05:37:26.261Z,73.70
2018-04-22T05:40:17.781Z,74.10
2018-04-22T05:43:08.876Z,74.00
2018-04-22T05:45:39.333Z,74.20
2018-04-22T05:48:09.762Z,73.90
2018-04-22T05:50:40.192Z,74.10
2018-04-22T05:53:10.656Z,72.50
2018-04-22T05:55:41.852Z,72.50
2018-04-22T05:58:13.279Z,72.50
2018-04-22T06:00:43.727Z,72.90
2018-04-22T06:03:35.298Z,73.10
2018-04-22T06:06:06.511Z,73.50
2018-04-22T06:08:36.926Z,73.30
2018-04-22T06:11:09.310Z,74.00
2018-04-22T06:13:39.663Z,74.80
2018-04-22T06:18:59.535Z,74.10
2018-04-22T06:21:29.888Z,73.60
2018-04-22T06:24:01.002Z,73.50
2018-04-22T06:26:31.361Z,73.50
2018-04-22T06:29:02.708Z,73.90
2018-04-22T06:31:33.822Z,74.40
2018-04-22T06:34:04.157Z,74.40
2018-04-22T06:36:34.498Z,74.40
2018-04-22T06:39:05.578Z,74.40
2018-04-22T06:41:35.948Z,73.60
2018-04-22T06:44:06.289Z,73.70
2018-04-22T06:46:37.399Z,72.60
2018-04-22T06:49:07.757Z,72.60
2018-04-22T06:51:38.102Z,72.70
2018-04-22T06:54:09.173Z,72.20
2018-04-22T06:56:39.534Z,72.10
2018-04-22T06:59:09.871Z,72.60
2018-04-22T07:01:40.210Z,72.80
2018-04-22T07:04:11.357Z,72.80
2018-04-22T07:06:42.465Z,72.40
2018-04-22T07:09:16.915Z,72.40
2018-04-22T07:11:48.017Z,72.20
2018-04-22T07:14:24.740Z,72.20
2018-04-22T07:16:56.864Z,72.70
2018-04-22T07:19:27.180Z,72.70
2018-04-22T07:22:03.689Z,72.00
2018-04-22T07:24:34.031Z,71.40
2018-04-22T07:27:04.398Z,71.10
2018-04-22T07:29:41.938Z,70.90
2018-04-22T07:32:13.067Z,71.30
2018-04-22T07:34:43.374Z,70.70
2018-04-22T07:37:15.812Z,70.90
2018-04-22T07:39:46.156Z,70.20
2018-04-22T07:42:16.520Z,70.30
2018-04-22T07:44:46.889Z,70.30
2018-04-22T07:47:17.255Z,70.20
2018-04-22T07:49:47.849Z,70.40
2018-04-22T07:52:18.232Z,70.50
2018-04-22T07:54:48.537Z,70.60
2018-04-22T07:57:18.880Z,70.50
2018-04-22T07:59:49.281Z,71.20
2018-04-22T08:02:40.990Z,70.90
2018-04-22T08:05:15.449Z,71.20
2018-04-22T08:07:45.802Z,71.10
2018-04-22T08:10:16.926Z,70.70
2018-04-22T08:12:47.308Z,70.70
2018-04-22T08:15:19.713Z,70.20
2018-04-22T08:17:50.055Z,70.20
2018-04-22T08:20:20.440Z,69.80
2018-04-22T08:22:52.847Z,69.20
2018-04-22T08:25:23.186Z,69.20
2018-04-22T08:27:54.315Z,69.60
2018-04-22T08:30:24.673Z,69.60
2018-04-22T08:32:55.784Z,69.40
2018-04-22T08:35:26.121Z,69.40
2018-04-22T08:37:56.466Z,69.50
2018-04-22T08:40:27.571Z,70.50
2018-04-22T08:42:58.365Z,70.40
2018-04-22T08:45:28.703Z,70.70
2018-04-22T08:48:02.116Z,69.90
2018-04-22T08:50:53.639Z,69.20
2018-04-22T08:53:44.254Z,69.10
2018-04-22T08:56:14.645Z,69.30
2018-04-22T08:58:47.030Z,68.40
2018-04-22T09:01:21.486Z,67.50
2018-04-22T09:03:51.820Z,67.30
2018-04-22T09:06:22.178Z,67.30
2018-04-22T09:08:52.540Z,69.10
2018-04-22T09:11:22.872Z,65.20
2018-04-22T09:13:53.451Z,65.80
2018-04-22T09:16:23.875Z,65.70
2018-04-22T09:18:54.191Z,66.10
2018-04-22T09:21:24.538Z,66.70
2018-04-22T09:23:54.911Z,67.00
2018-04-22T09:26:25.239Z,65.90
2018-04-22T09:28:55.580Z,66.60
2018-04-22T09:31:25.941Z,65.40
2018-04-22T09:33:56.299Z,65.80
2018-04-22T09:36:48.081Z,65.80
2018-04-22T09:39:19.464Z,64.90
2018-04-22T09:41:56.952Z,65.50
2018-04-22T09:44:27.263Z,64.80
2018-04-22T09:46:57.602Z,64.20
2018-04-22T09:49:27.961Z,65.00
2018-04-22T09:51:58.295Z,64.40
2018-04-22T09:54:28.640Z,63.10
2018-04-22T09:56:59.757Z,62.70
2018-04-22T09:59:30.119Z,62.70
2018-04-22T10:02:02.245Z,60.50
2018-04-22T10:04:41.426Z,60.50
2018-04-22T10:07:12.545Z,60.30
2018-04-22T10:09:42.888Z,60.20
2018-04-22T10:12:14.031Z,60.20
2018-04-22T10:14:45.157Z,60.60
2018-04-22T10:17:15.500Z,60.50
2018-04-22T10:19:46.663Z,59.30
2018-04-22T10:22:16.997Z,59.20
2018-04-22T10:24:48.382Z,59.20
2018-04-22T10:27:18.847Z,59.80
2018-04-22T10:32:40.280Z,58.90
2018-04-22T10:35:11.402Z,58.20
2018-04-22T10:37:41.756Z,58.20
2018-04-22T10:40:12.941Z,58.90
2018-04-22T10:42:43.219Z,58.70
2018-04-22T10:45:14.321Z,56.90
2018-04-22T10:47:44.683Z,56.90
2018-04-22T10:50:15.800Z,58.60
2018-04-22T10:52:46.367Z,58.50
2018-04-22T10:55:17.598Z,55.60
2018-04-22T10:57:49.137Z,54.00
2018-04-22T11:00:19.479Z,53.90
2018-04-22T11:02:50.620Z,55.60
2018-04-22T11:05:21.749Z,54.50
2018-04-22T11:07:52.108Z,54.90
2018-04-22T11:10:23.251Z,53.20
2018-04-22T11:12:54.375Z,53.50
2018-04-22T11:15:24.730Z,52.80
2018-04-22T11:17:55.093Z,50.50
2018-04-22T11:20:25.393Z,49.70
2018-04-22T11:22:55.748Z,49.00
2018-04-22T11:25:26.119Z,49.60
2018-04-22T11:27:57.221Z,49.70
2018-04-22T11:30:27.574Z,49.60
2018-04-22T11:32:58.703Z,48.90
2018-04-22T11:35:29.047Z,49.50
2018-04-22T11:38:00.144Z,49.70
2018-04-22T11:40:37.794Z,49.10
2018-04-22T11:43:08.906Z,50.60
2018-04-22T11:45:39.245Z,50.60
2018-04-22T11:48:09.611Z,51.40
2018-04-22T11:50:39.951Z,51.40
2018-04-22T11:53:10.308Z,50.30
2018-04-22T11:55:40.686Z,48.80
2018-04-22T11:58:11.784Z,50.90
2018-04-22T12:00:42.154Z,50.80
2018-04-22T12:03:12.535Z,50.30
2018-04-22T12:05:42.839Z,48.30
2018-04-22T12:08:15.216Z,49.30
2018-04-22T12:10:47.625Z,48.20
2018-04-22T12:13:17.976Z,48.20
2018-04-22T12:15:48.320Z,47.90
2018-04-22T12:18:19.713Z,46.80
2018-04-22T12:20:50.078Z,47.70
2018-04-22T12:23:20.638Z,48.90
2018-04-22T12:25:51.011Z,48.40
2018-04-22T12:28:22.121Z,48.60
2018-04-22T12:30:52.474Z,48.00
2018-04-22T12:33:22.817Z,48.40
2018-04-22T12:35:53.938Z,46.70
2018-04-22T12:38:24.292Z,46.80
2018-04-22T12:40:54.646Z,47.80
2018-04-22T12:43:27.033Z,47.70
2018-04-22T12:46:18.833Z,48.90
2018-04-22T12:48:49.176Z,46.40
2018-04-22T12:51:21.569Z,48.40
2018-04-22T12:53:51.960Z,48.00
2018-04-22T12:56:23.061Z,47.50
2018-04-22T12:58:53.401Z,47.50
2018-04-22T13:01:24.530Z,48.60
2018-04-22T13:03:54.892Z,48.60
2018-04-22T13:06:25.196Z,48.30
2018-04-22T13:08:56.352Z,48.80
2018-04-22T13:11:26.709Z,49.30
2018-04-22T13:13:59.109Z,49.30
2018-04-22T13:16:29.483Z,49.20
2018-04-22T13:18:59.823Z,48.30
2018-04-22T13:21:30.171Z,48.20
2018-04-22T13:24:00.545Z,48.80
2018-04-22T13:26:30.911Z,49.10
2018-04-22T13:29:01.219Z,48.60
2018-04-22T13:31:31.601Z,48.50
2018-04-22T13:34:01.944Z,48.00
2018-04-22T13:36:32.304Z,48.70
2018-04-22T13:39:02.698Z,49.50
2018-04-22T13:41:33.035Z,49.50
2018-04-22T13:44:04.137Z,49.40
2018-04-22T13:46:34.518Z,49.40
2018-04-22T13:49:04.894Z,48.40
2018-04-22T13:51:35.459Z,48.30
2018-04-22T13:54:06.604Z,48.00
2018-04-22T13:56:37.773Z,47.10
2018-04-22T13:59:08.143Z,47.10
2018-04-22T14:01:38.522Z,47.80
2018-04-22T14:04:08.864Z,49.00
2018-04-22T14:06:39.207Z,48.60
2018-04-22T14:09:09.887Z,48.60
2018-04-22T14:11:40.518Z,48.40
2018-04-22T14:14:10.887Z,48.70
2018-04-22T14:16:41.273Z,47.90
2018-04-22T14:19:12.384Z,48.60
2018-04-22T14:21:42.726Z,48.60
2018-04-22T14:24:13.865Z,47.30
2018-04-22T14:26:44.997Z,47.80
2018-04-22T14:29:15.354Z,47.80
2018-04-22T14:31:45.745Z,46.90
2018-04-22T14:34:17.096Z,47.30
2018-04-22T14:36:47.647Z,46.90
2018-04-22T14:39:18.791Z,46.90
2018-04-22T14:41:49.859Z,47.70
2018-04-22T14:45:14.576Z,47.70
2018-04-22T14:50:33.300Z,47.50
2018-04-22T14:53:03.647Z,46.90
2018-04-22T14:55:34.843Z,47.60
2018-04-22T14:58:05.210Z,47.60
2018-04-22T15:00:36.312Z,46.20
2018-04-22T15:03:06.655Z,46.10
2018-04-22T15:05:37.036Z,46.60
2018-04-22T15:08:08.397Z,46.80
2018-04-22T15:10:40.746Z,46.40
2018-04-22T15:13:12.152Z,46.90
2018-04-22T15:15:42.696Z,47.40
2018-04-22T15:18:14.090Z,48.20
2018-04-22T15:20:44.462Z,48.30
2018-04-22T15:23:14.814Z,47.80
2018-04-22T15:25:45.165Z,48.50
2018-04-22T15:28:15.497Z,48.40
2018-04-22T15:30:47.854Z,50.20
2018-04-22T15:33:18.198Z,49.50
2018-04-22T15:35:48.565Z,50.20
2018-04-22T15:38:18.865Z,50.60
2018-04-22T15:40:56.554Z,49.70
2018-04-22T15:43:28.960Z,50.20
2018-04-22T15:45:59.293Z,49.30
2018-04-22T15:48:29.662Z,49.90
2018-04-22T15:51:00.013Z,50.40
2018-04-22T15:53:30.373Z,51.20
2018-04-22T15:56:01.502Z,48.80
2018-04-22T15:58:31.850Z,49.20
2018-04-22T16:01:02.953Z,46.10
2018-04-22T16:03:33.335Z,46.10
2018-04-22T16:06:03.681Z,45.90
2018-04-22T16:08:34.038Z,45.20
2018-04-22T16:11:04.454Z,46.40
2018-04-22T16:13:34.760Z,46.40
2018-04-22T16:16:05.093Z,45.80
2018-04-22T16:18:35.455Z,46.00
2018-04-22T16:21:05.811Z,46.50
2018-04-22T16:23:36.166Z,47.00
2018-04-22T16:26:08.576Z,47.20
2018-04-22T16:28:38.924Z,47.70
2018-04-22T16:31:10.030Z,47.90
2018-04-22T16:33:40.415Z,47.90
2018-04-22T16:36:10.770Z,48.00
2018-04-22T16:38:41.109Z,49.20
2018-04-22T16:41:11.472Z,49.70
2018-04-22T16:43:41.823Z,50.00
2018-04-22T16:46:12.181Z,49.60
2018-04-22T16:48:42.550Z,47.80
2018-04-22T16:51:12.919Z,48.10
2018-04-22T16:53:48.395Z,49.00
2018-04-22T16:56:18.751Z,49.50
2018-04-22T16:58:50.106Z,49.40
2018-04-22T17:01:21.274Z,48.70
2018-04-22T17:03:52.349Z,48.30
2018-04-22T17:06:22.692Z,48.30
2018-04-22T17:08:53.072Z,49.20
2018-04-22T17:11:23.428Z,48.80
2018-04-22T17:13:53.769Z,49.00
2018-04-22T17:16:24.146Z,49.50
2018-04-22T17:18:54.507Z,49.50
2018-04-22T17:21:24.849Z,49.80
2018-04-22T17:23:55.209Z,50.00
2018-04-22T17:26:25.518Z,50.50
2018-04-22T17:28:56.874Z,51.60
2018-04-22T17:31:28.009Z,51.60
2018-04-22T17:34:01.163Z,52.30
2018-04-22T17:36:31.470Z,52.00
2018-04-22T17:39:01.872Z,52.70
2018-04-22T17:41:32.229Z,53.80
2018-04-22T17:44:05.661Z,53.40
2018-04-22T17:46:36.026Z,53.00
2018-04-22T17:49:06.334Z,52.90
2018-04-22T17:51:37.440Z,53.30
2018-04-22T17:54:07.824Z,53.30
2018-04-22T17:56:38.164Z,52.40
2018-04-22T17:59:13.666Z,50.20
2018-04-22T18:01:44.787Z,49.20
2018-04-22T18:04:15.349Z,49.20
2018-04-22T18:06:45.722Z,51.20
2018-04-22T18:09:19.149Z,50.60
2018-04-22T18:11:49.483Z,51.30
2018-04-22T18:14:20.637Z,59.50
2018-04-22T18:16:50.967Z,59.50
2018-04-22T18:19:22.072Z,59.60
2018-04-22T18:21:52.461Z,59.50
2018-04-22T18:24:22.819Z,58.90
2018-04-22T18:26:53.176Z,58.60
2018-04-22T18:29:25.320Z,58.50
2018-04-22T18:31:55.668Z,58.50
2018-04-22T18:34:26.769Z,59.40
2018-04-22T18:37:18.857Z,59.30
2018-04-22T18:39:49.985Z,61.80
2018-04-22T18:42:20.345Z,61.80
2018-04-22T18:44:50.720Z,62.30
2018-04-22T18:47:21.065Z,63.80
2018-04-22T18:49:51.421Z,63.00
2018-04-22T18:52:21.791Z,62.40
2018-04-22T18:54:52.125Z,61.60
2018-04-22T18:57:22.436Z,62.60
2018-04-22T19:00:12.169Z,63.30
2018-04-22T19:05:27.925Z,61.20
2018-04-22T19:07:58.278Z,62.20
2018-04-22T19:10:29.379Z,62.10
2018-04-22T19:13:04.059Z,62.30
2018-04-22T19:15:35.171Z,61.10
2018-04-22T19:18:05.535Z,61.00
2018-04-22T19:20:36.679Z,62.20
2018-04-22T19:23:07.848Z,63.30
2018-04-22T19:25:39.081Z,63.30
2018-04-22T19:28:09.456Z,63.10
2018-04-22T19:30:39.816Z,63.50
2018-04-22T19:33:10.153Z,63.50
2018-04-22T19:35:41.287Z,64.00
2018-04-22T19:38:12.359Z,64.50
2018-04-22T19:40:42.707Z,64.50
2018-04-22T19:43:13.067Z,64.70
2018-04-22T19:45:44.173Z,64.80
2018-04-22T19:48:21.841Z,64.30
2018-04-22T19:50:52.181Z,64.70
2018-04-22T19:53:24.577Z,64.30
2018-04-22T19:55:54.900Z,63.50
2018-04-22T19:58:26.496Z,63.40
2018-04-22T20:00:57.608Z,65.00
2018-04-22T20:03:28.027Z,64.20
2018-04-22T20:05:58.326Z,64.00
2018-04-22T20:08:28.653Z,64.30
2018-04-22T20:10:59.034Z,64.70
2018-04-22T20:13:30.149Z,65.60
2018-04-22T20:16:00.514Z,65.40
2018-04-22T20:18:31.613Z,65.50
2018-04-22T20:21:24.144Z,66.10
2018-04-22T20:23:58.598Z,66.10
2018-04-22T20:26:28.957Z,65.40
2018-04-22T20:28:59.264Z,66.10
2018-04-22T20:31:30.414Z,66.20
2018-04-22T20:34:00.753Z,66.90
2018-04-22T20:36:31.880Z,67.50
2018-04-22T20:39:02.453Z,67.40
2018-04-22T20:41:34.077Z,66.50
2018-04-22T20:44:04.439Z,65.70
2018-04-22T20:46:36.865Z,64.80
2018-04-22T20:49:07.993Z,64.20
2018-04-22T20:51:38.358Z,63.70
2018-04-22T20:54:09.506Z,64.20
2018-04-22T20:56:39.871Z,64.10
2018-04-22T20:59:30.622Z,64.10
2018-04-22T21:02:01.734Z,64.40
2018-04-22T21:04:32.099Z,64.30
2018-04-22T21:07:03.252Z,64.90
2018-04-22T21:09:33.609Z,64.90
2018-04-22T21:12:03.917Z,65.30
2018-04-22T21:14:34.249Z,64.80
2018-04-22T21:17:07.655Z,65.30
2018-04-22T21:19:40.080Z,65.40
2018-04-22T21:22:11.220Z,65.90
2018-04-22T21:24:41.558Z,65.90
2018-04-22T21:27:12.699Z,68.20
2018-04-22T21:29:43.802Z,67.80
2018-04-22T21:32:14.147Z,67.90
2018-04-22T21:34:44.796Z,67.30
2018-04-22T21:37:15.925Z,67.40
2018-04-22T21:39:46.271Z,67.40
2018-04-22T21:42:17.358Z,68.60
2018-04-22T21:45:08.104Z,68.50
2018-04-22T21:47:39.265Z,69.60
2018-04-22T21:50:10.340Z,70.70
2018-04-22T21:52:46.838Z,70.70
2018-04-22T21:55:17.149Z,71.40
2018-04-22T21:57:47.509Z,71.40
2018-04-22T22:00:18.645Z,72.60
2018-04-22T22:02:49.006Z,71.80
2018-04-22T22:05:19.338Z,72.20
2018-04-22T22:07:49.951Z,72.80
2018-04-22T22:10:21.305Z,73.20
2018-04-22T22:12:52.422Z,74.20
2018-04-22T22:15:22.790Z,74.10
2018-04-22T22:17:53.129Z,74.40
2018-04-22T22:20:27.584Z,75.30
2018-04-22T22:22:57.942Z,74.90
2018-04-22T22:25:29.065Z,75.30
2018-04-22T22:27:59.426Z,75.40
2018-04-22T22:30:29.803Z,74.80
2018-04-22T22:33:00.110Z,75.20
2018-04-22T22:35:52.674Z,75.40
2018-04-22T22:38:23.011Z,75.40
2018-04-22T22:40:53.368Z,75.40
2018-04-22T22:43:23.739Z,75.70
2018-04-22T22:45:57.161Z,75.20
2018-04-22T22:48:27.511Z,75.20
2018-04-22T22:50:58.663Z,75.30
2018-04-22T22:53:29.011Z,75.30
2018-04-22T22:55:59.609Z,76.60
2018-04-22T22:58:30.764Z,76.00
2018-04-22T23:01:01.105Z,75.80
2018-04-22T23:03:31.454Z,75.90
2018-04-22T23:06:07.972Z,75.90
2018-04-22T23:08:39.099Z,75.50
2018-04-22T23:13:52.670Z,76.20
2018-04-22T23:16:23.782Z,76.20
2018-04-22T23:18:54.132Z,76.20
2018-04-22T23:21:25.261Z,76.20
2018-04-22T23:23:55.627Z,75.50
2018-04-22T23:26:25.965Z,76.40
2018-04-22T23:28:56.346Z,76.70
2018-04-22T23:31:26.705Z,76.50
2018-04-22T23:33:57.317Z,76.80
2018-04-22T23:36:28.460Z,75.80
2018-04-22T23:38:59.573Z,75.50
2018-04-22T23:41:29.923Z,75.40
2018-04-22T23:44:01.099Z,71.70
2018-04-22T23:46:31.453Z,71.70
2018-04-22T23:49:23.999Z,71.20
2018-04-22T23:52:15.765Z,71.10
2018-04-22T23:54:46.912Z,67.90
2018-04-22T23:57:18.047Z,67.10
2018-04-22T23:59:48.325Z,67.10
